createdAt,value
2018-12-30T00:00:46.809Z,6.04
2018-12-30T00:01:46.778Z,6.05
2018-12-30T00:02:46.884Z,6.07
2018-12-30T00:03:46.765Z,6.02
2018-12-30T00:04:46.829Z,6.12
2018-12-30T00:05:46.745Z,6.07
2018-12-30T00:06:46.777Z,6.05
2018-12-30T00:07:46.711Z,6.17
2018-12-30T00:08:46.873Z,6.17
2018-12-30T00:09:46.717Z,6.12
2018-12-30T00:10:46.690Z,6.24
2018-12-30T00:11:46.675Z,6.20
2018-12-30T00:12:46.662Z,6.19
2018-12-30T00:13:46.651Z,6.22
2018-12-30T00:14:46.757Z,6.22
2018-12-30T00:15:46.626Z,6.35
2018-12-30T00:16:46.623Z,6.33
2018-12-30T00:17:46.623Z,6.27
2018-12-30T00:18:46.593Z,6.33
2018-12-30T00:19:46.629Z,6.26
2018-12-30T00:20:46.703Z,6.35
2018-12-30T00:21:46.604Z,6.30
2018-12-30T00:22:46.561Z,6.28
2018-12-30T00:23:46.561Z,6.39
2018-12-30T00:24:46.530Z,6.35
2018-12-30T00:25:46.518Z,6.38
2018-12-30T00:26:46.638Z,6.44
2018-12-30T00:27:46.500Z,6.44
2018-12-30T00:28:46.487Z,6.41
2018-12-30T00:29:46.572Z,6.42
2018-12-30T00:30:46.469Z,6.44
2018-12-30T00:31:46.460Z,6.38
2018-12-30T00:32:47.188Z,6.51
2018-12-30T00:33:46.435Z,6.52
2018-12-30T00:34:46.423Z,6.57
2018-12-30T00:35:46.773Z,6.57
2018-12-30T00:36:46.458Z,6.51
2018-12-30T00:37:46.385Z,6.45
2018-12-30T00:38:46.678Z,6.54
2018-12-30T00:39:46.536Z,6.44
2018-12-30T00:40:46.477Z,6.54
2018-12-30T00:41:46.431Z,6.57
2018-12-30T00:42:46.568Z,6.56
2018-12-30T00:43:46.532Z,6.56
2018-12-30T00:44:46.928Z,6.48
2018-12-30T00:45:46.364Z,6.51
2018-12-30T00:46:46.365Z,6.54
2018-12-30T00:47:46.417Z,6.49
2018-12-30T00:48:46.386Z,6.56
2018-12-30T00:49:46.301Z,6.51
2018-12-30T00:50:46.664Z,6.56
2018-12-30T00:51:46.258Z,6.52
2018-12-30T00:52:46.358Z,6.52
2018-12-30T00:53:46.296Z,6.60
2018-12-30T00:54:46.199Z,6.56
2018-12-30T00:55:46.218Z,6.59
2018-12-30T00:56:46.430Z,6.49
2018-12-30T00:57:46.210Z,6.54
2018-12-30T00:58:46.159Z,6.66
2018-12-30T00:59:46.153Z,6.64
2018-12-30T01:00:46.164Z,6.63
2018-12-30T01:01:46.139Z,6.69
2018-12-30T01:02:46.252Z,6.69
2018-12-30T01:03:47.128Z,6.63
2018-12-30T01:04:46.103Z,6.66
2018-12-30T01:05:46.084Z,6.66
2018-12-30T01:06:46.076Z,6.72
2018-12-30T01:07:46.076Z,6.64
2018-12-30T01:08:46.241Z,6.70
2018-12-30T01:09:46.044Z,6.70
2018-12-30T01:10:46.149Z,6.77
2018-12-30T01:11:46.015Z,6.74
2018-12-30T01:12:46.038Z,6.75
2018-12-30T01:13:46.018Z,6.78
2018-12-30T01:14:46.232Z,6.75
2018-12-30T01:15:45.967Z,6.82
2018-12-30T01:16:45.964Z,6.87
2018-12-30T01:17:45.958Z,6.75
2018-12-30T01:18:45.962Z,6.79
2018-12-30T01:19:45.957Z,6.82
2018-12-30T01:20:46.278Z,6.85
2018-12-30T01:21:45.958Z,6.85
2018-12-30T01:22:45.944Z,6.82
2018-12-30T01:23:45.929Z,6.82
2018-12-30T01:24:45.879Z,6.82
2018-12-30T01:25:45.888Z,6.89
2018-12-30T01:26:46.173Z,6.88
2018-12-30T01:27:45.922Z,6.89
2018-12-30T01:28:45.851Z,6.93
2018-12-30T01:29:45.850Z,6.84
2018-12-30T01:30:45.892Z,6.89
2018-12-30T01:31:45.822Z,6.88
2018-12-30T01:32:46.080Z,6.93
2018-12-30T01:33:48.501Z,6.93
2018-12-30T01:34:45.760Z,6.92
2018-12-30T01:35:45.756Z,6.89
2018-12-30T01:36:45.738Z,6.93
2018-12-30T01:37:45.728Z,6.93
2018-12-30T01:38:45.843Z,6.97
2018-12-30T01:39:45.714Z,6.96
2018-12-30T01:40:45.693Z,6.99
2018-12-30T01:41:45.694Z,6.96
2018-12-30T01:42:45.765Z,7.00
2018-12-30T01:43:45.930Z,7.07
2018-12-30T01:44:45.828Z,7.00
2018-12-30T01:45:45.638Z,7.03
2018-12-30T01:46:45.687Z,7.05
2018-12-30T01:47:45.628Z,7.05
2018-12-30T01:48:45.611Z,7.11
2018-12-30T01:49:45.599Z,7.03
2018-12-30T01:50:46.780Z,7.06
2018-12-30T01:51:45.577Z,7.06
2018-12-30T01:52:45.564Z,7.11
2018-12-30T01:53:45.574Z,7.07
2018-12-30T01:54:45.553Z,7.07
2018-12-30T01:55:45.540Z,7.10
2018-12-30T01:56:46.278Z,7.11
2018-12-30T01:57:45.515Z,7.06
2018-12-30T01:58:45.503Z,7.03
2018-12-30T01:59:45.541Z,7.05
2018-12-30T02:00:45.477Z,7.21
2018-12-30T02:01:45.468Z,7.23
2018-12-30T02:02:45.546Z,7.20
2018-12-30T02:03:45.452Z,7.21
2018-12-30T02:04:45.442Z,7.23
2018-12-30T02:05:45.430Z,7.24
2018-12-30T02:06:45.415Z,7.25
2018-12-30T02:07:45.398Z,7.24
2018-12-30T02:08:45.587Z,7.24
2018-12-30T02:09:45.392Z,7.28
2018-12-30T02:10:45.382Z,7.17
2018-12-30T02:11:45.414Z,7.29
2018-12-30T02:12:45.347Z,7.29
2018-12-30T02:13:45.336Z,7.35
2018-12-30T02:14:45.529Z,7.25
2018-12-30T02:15:45.322Z,7.24
2018-12-30T02:16:45.367Z,7.32
2018-12-30T02:17:45.307Z,7.25
2018-12-30T02:18:45.286Z,7.23
2018-12-30T02:19:45.264Z,7.24
2018-12-30T02:20:45.729Z,7.36
2018-12-30T02:21:45.252Z,7.32
2018-12-30T02:22:45.239Z,7.36
2018-12-30T02:23:45.220Z,7.38
2018-12-30T02:24:45.219Z,7.35
2018-12-30T02:25:45.210Z,7.31
2018-12-30T02:26:45.310Z,7.29
2018-12-30T02:27:45.180Z,7.32
2018-12-30T02:28:45.313Z,7.35
2018-12-30T02:29:45.160Z,7.38
2018-12-30T02:30:45.156Z,7.31
2018-12-30T02:31:45.161Z,7.40
2018-12-30T02:32:45.732Z,7.39
2018-12-30T02:33:45.217Z,7.33
2018-12-30T02:34:45.105Z,7.36
2018-12-30T02:35:45.107Z,7.38
2018-12-30T02:36:45.100Z,7.39
2018-12-30T02:37:45.114Z,7.33
2018-12-30T02:38:45.159Z,7.38
2018-12-30T02:39:45.064Z,7.35
2018-12-30T02:40:45.071Z,7.36
2018-12-30T02:41:45.030Z,7.35
2018-12-30T02:42:45.020Z,7.32
2018-12-30T02:43:45.013Z,7.35
2018-12-30T02:44:45.143Z,7.39
2018-12-30T02:45:44.992Z,7.42
2018-12-30T02:46:44.972Z,7.38
2018-12-30T02:47:44.962Z,7.39
2018-12-30T02:48:44.971Z,7.40
2018-12-30T02:49:44.957Z,7.38
2018-12-30T02:50:45.227Z,7.47
2018-12-30T02:51:50.674Z,7.36
2018-12-30T02:52:45.967Z,7.48
2018-12-30T02:53:44.907Z,7.42
2018-12-30T02:54:44.906Z,7.47
2018-12-30T02:55:44.880Z,7.47
2018-12-30T02:56:45.091Z,7.42
2018-12-30T02:57:44.856Z,7.45
2018-12-30T02:58:44.844Z,7.39
2018-12-30T02:59:44.974Z,7.45
2018-12-30T03:00:44.838Z,7.53
2018-12-30T03:01:44.808Z,7.42
2018-12-30T03:02:44.893Z,7.56
2018-12-30T03:03:44.796Z,7.43
2018-12-30T03:04:44.780Z,7.50
2018-12-30T03:05:44.821Z,7.51
2018-12-30T03:06:44.762Z,7.53
2018-12-30T03:07:44.748Z,7.50
2018-12-30T03:08:44.844Z,7.54
2018-12-30T03:09:44.714Z,7.51
2018-12-30T03:10:44.714Z,7.61
2018-12-30T03:11:44.716Z,7.54
2018-12-30T03:12:44.706Z,7.54
2018-12-30T03:13:44.689Z,7.54
2018-12-30T03:14:44.782Z,7.61
2018-12-30T03:15:44.655Z,7.70
2018-12-30T03:16:44.655Z,7.58
2018-12-30T03:17:44.641Z,7.58
2018-12-30T03:18:44.639Z,7.58
2018-12-30T03:19:44.613Z,7.61
2018-12-30T03:20:44.736Z,7.60
2018-12-30T03:21:44.586Z,7.69
2018-12-30T03:22:44.660Z,7.67
2018-12-30T03:23:44.581Z,7.70
2018-12-30T03:24:44.581Z,7.72
2018-12-30T03:25:44.546Z,7.70
2018-12-30T03:26:44.792Z,7.73
2018-12-30T03:27:44.528Z,7.73
2018-12-30T03:28:44.525Z,7.69
2018-12-30T03:29:44.526Z,7.76
2018-12-30T03:30:44.497Z,7.72
2018-12-30T03:31:44.491Z,7.70
2018-12-30T03:32:44.557Z,7.80
2018-12-30T03:33:44.464Z,7.75
2018-12-30T03:34:44.451Z,7.72
2018-12-30T03:35:44.449Z,7.77
2018-12-30T03:36:44.424Z,7.79
2018-12-30T03:37:44.418Z,7.80
2018-12-30T03:38:44.599Z,7.80
2018-12-30T03:39:44.486Z,7.87
2018-12-30T03:40:44.394Z,7.88
2018-12-30T03:41:44.387Z,7.90
2018-12-30T03:42:44.370Z,7.87
2018-12-30T03:43:45.573Z,7.88
2018-12-30T03:44:44.445Z,7.91
2018-12-30T03:45:44.341Z,7.94
2018-12-30T03:46:44.542Z,7.90
2018-12-30T03:47:44.313Z,7.87
2018-12-30T03:48:44.301Z,7.94
2018-12-30T03:49:44.293Z,7.88
2018-12-30T03:50:44.382Z,7.90
2018-12-30T03:51:44.279Z,7.88
2018-12-30T03:52:44.301Z,7.94
2018-12-30T03:53:44.249Z,7.93
2018-12-30T03:54:44.293Z,7.90
2018-12-30T03:55:44.229Z,7.94
2018-12-30T03:56:44.444Z,7.97
2018-12-30T03:57:44.214Z,7.88
2018-12-30T03:58:44.217Z,7.97
2018-12-30T03:59:44.177Z,7.98
2018-12-30T04:00:44.169Z,7.94
2018-12-30T04:01:44.172Z,8.01
2018-12-30T04:02:44.291Z,7.98
2018-12-30T04:03:44.149Z,7.95
2018-12-30T04:04:44.893Z,7.98
2018-12-30T04:05:44.125Z,7.98
2018-12-30T04:06:44.108Z,8.00
2018-12-30T04:07:44.106Z,7.98
2018-12-30T04:08:44.234Z,7.95
2018-12-30T04:09:44.071Z,8.09
2018-12-30T04:10:44.059Z,8.09
2018-12-30T04:11:44.125Z,8.05
2018-12-30T04:12:44.049Z,8.10
2018-12-30T04:13:44.038Z,8.09
2018-12-30T04:14:44.158Z,8.08
2018-12-30T04:15:44.037Z,8.13
2018-12-30T04:16:44.002Z,8.10
2018-12-30T04:17:43.986Z,8.12
2018-12-30T04:18:43.981Z,8.15
2018-12-30T04:19:43.982Z,8.10
2018-12-30T04:20:44.216Z,8.15
2018-12-30T04:21:43.965Z,8.20
2018-12-30T04:22:43.951Z,8.18
2018-12-30T04:23:43.947Z,8.20
2018-12-30T04:24:43.954Z,8.18
2018-12-30T04:25:43.959Z,8.24
2018-12-30T04:26:44.215Z,8.24
2018-12-30T04:27:43.878Z,8.15
2018-12-30T04:28:43.972Z,8.19
2018-12-30T04:29:43.861Z,8.18
2018-12-30T04:30:43.850Z,8.20
2018-12-30T04:31:43.852Z,8.23
2018-12-30T04:32:44.257Z,8.23
2018-12-30T04:33:43.815Z,8.33
2018-12-30T04:34:43.804Z,8.23
2018-12-30T04:35:43.801Z,8.24
2018-12-30T04:36:43.781Z,8.36
2018-12-30T04:37:43.771Z,8.30
2018-12-30T04:38:43.940Z,8.27
2018-12-30T04:39:43.744Z,8.28
2018-12-30T04:40:43.744Z,8.30
2018-12-30T04:41:43.736Z,8.30
2018-12-30T04:42:43.714Z,8.26
2018-12-30T04:43:43.710Z,8.31
2018-12-30T04:44:43.814Z,8.31
2018-12-30T04:45:43.784Z,8.37
2018-12-30T04:46:43.678Z,8.33
2018-12-30T04:47:43.665Z,8.36
2018-12-30T04:48:43.664Z,8.37
2018-12-30T04:49:43.646Z,8.33
2018-12-30T04:50:43.741Z,8.37
2018-12-30T04:51:43.629Z,8.34
2018-12-30T04:52:43.612Z,8.31
2018-12-30T04:53:43.985Z,8.31
2018-12-30T04:54:43.580Z,8.36
2018-12-30T04:55:43.582Z,8.31
2018-12-30T04:56:43.741Z,8.31
2018-12-30T04:57:43.560Z,8.41
2018-12-30T04:58:43.547Z,8.38
2018-12-30T04:59:43.533Z,8.41
2018-12-30T05:00:43.525Z,8.48
2018-12-30T05:01:43.533Z,8.37
2018-12-30T05:02:43.754Z,8.45
2018-12-30T05:03:43.485Z,8.36
2018-12-30T05:04:43.503Z,8.37
2018-12-30T05:05:43.477Z,8.41
2018-12-30T05:06:43.458Z,8.33
2018-12-30T05:07:43.444Z,8.46
2018-12-30T05:08:43.678Z,8.46
2018-12-30T05:09:43.426Z,8.37
2018-12-30T05:10:43.412Z,8.30
2018-12-30T05:11:43.405Z,8.34
2018-12-30T05:12:43.390Z,8.44
2018-12-30T05:13:43.379Z,8.33
2018-12-30T05:14:43.676Z,8.38
2018-12-30T05:15:43.355Z,8.42
2018-12-30T05:16:43.352Z,8.45
2018-12-30T05:17:43.329Z,8.44
2018-12-30T05:18:43.318Z,8.42
2018-12-30T05:19:43.336Z,8.48
2018-12-30T05:20:43.492Z,8.45
2018-12-30T05:21:43.312Z,8.46
2018-12-30T05:22:43.285Z,8.46
2018-12-30T05:23:43.263Z,8.46
2018-12-30T05:24:43.255Z,8.42
2018-12-30T05:25:43.356Z,8.44
2018-12-30T05:26:43.378Z,8.46
2018-12-30T05:27:43.224Z,8.44
2018-12-30T05:28:43.230Z,8.48
2018-12-30T05:29:43.221Z,8.52
2018-12-30T05:30:43.187Z,8.33
2018-12-30T05:31:43.176Z,8.44
2018-12-30T05:32:43.270Z,8.45
2018-12-30T05:33:43.162Z,8.34
2018-12-30T05:34:43.201Z,8.28
2018-12-30T05:35:43.129Z,8.37
2018-12-30T05:36:43.124Z,8.34
2018-12-30T05:37:43.122Z,8.41
2018-12-30T05:38:43.273Z,8.36
2018-12-30T05:39:43.094Z,8.33
2018-12-30T05:40:43.076Z,8.37
2018-12-30T05:41:43.062Z,8.38
2018-12-30T05:42:43.057Z,8.33
2018-12-30T05:43:43.041Z,8.36
2018-12-30T05:44:43.174Z,8.30
2018-12-30T05:45:43.045Z,8.28
2018-12-30T05:46:43.009Z,8.33
2018-12-30T05:47:43.029Z,8.30
2018-12-30T05:48:42.992Z,8.33
2018-12-30T05:49:42.977Z,8.30
2018-12-30T05:50:43.221Z,8.23
2018-12-30T05:51:43.041Z,8.26
2018-12-30T05:52:42.953Z,8.20
2018-12-30T05:53:42.939Z,8.23
2018-12-30T05:54:42.929Z,8.19
2018-12-30T05:55:42.908Z,8.16
2018-12-30T05:56:43.141Z,8.24
2018-12-30T05:57:43.948Z,8.10
2018-12-30T05:58:42.914Z,8.18
2018-12-30T05:59:42.868Z,8.10
2018-12-30T06:00:42.876Z,8.10
2018-12-30T06:01:42.845Z,8.08
2018-12-30T06:02:42.952Z,8.09
2018-12-30T06:03:42.822Z,8.12
2018-12-30T06:04:42.818Z,8.10
2018-12-30T06:05:42.804Z,8.09
2018-12-30T06:06:42.787Z,8.12
2018-12-30T06:07:42.785Z,8.10
2018-12-30T06:08:42.953Z,8.10
2018-12-30T06:09:42.756Z,7.98
2018-12-30T06:10:42.794Z,7.98
2018-12-30T06:11:42.729Z,8.03
2018-12-30T06:12:42.720Z,8.01
2018-12-30T06:13:42.728Z,7.97
2018-12-30T06:14:42.868Z,8.01
2018-12-30T06:15:42.704Z,7.93
2018-12-30T06:16:42.746Z,7.90
2018-12-30T06:17:42.671Z,7.88
2018-12-30T06:18:43.093Z,7.87
2018-12-30T06:19:42.651Z,7.80
2018-12-30T06:20:42.783Z,7.82
2018-12-30T06:21:42.630Z,7.85
2018-12-30T06:22:49.345Z,7.82
2018-12-30T06:23:43.608Z,7.79
2018-12-30T06:24:42.604Z,7.72
2018-12-30T06:25:42.679Z,7.70
2018-12-30T06:26:42.713Z,7.79
2018-12-30T06:27:42.598Z,7.70
2018-12-30T06:28:42.571Z,7.66
2018-12-30T06:29:42.540Z,7.76
2018-12-30T06:30:42.533Z,7.66
2018-12-30T06:31:42.535Z,7.75
2018-12-30T06:32:42.650Z,7.66
2018-12-30T06:33:42.561Z,7.69
2018-12-30T06:34:43.479Z,7.69
2018-12-30T06:35:42.507Z,7.73
2018-12-30T06:36:42.486Z,7.75
2018-12-30T06:37:42.452Z,7.63
2018-12-30T06:38:42.636Z,7.63
2018-12-30T06:39:42.438Z,7.60
2018-12-30T06:40:42.453Z,7.63
2018-12-30T06:41:42.413Z,7.58
2018-12-30T06:42:42.414Z,7.70
2018-12-30T06:43:42.392Z,7.61
2018-12-30T06:44:42.732Z,7.66
2018-12-30T06:45:42.364Z,7.57
2018-12-30T06:46:42.364Z,7.66
2018-12-30T06:47:42.361Z,7.60
2018-12-30T06:48:42.333Z,7.60
2018-12-30T06:49:42.334Z,7.66
2018-12-30T06:50:42.456Z,7.66
2018-12-30T06:51:42.300Z,7.63
2018-12-30T06:52:42.289Z,7.57
2018-12-30T06:53:42.296Z,7.60
2018-12-30T06:54:42.271Z,7.63
2018-12-30T06:55:42.277Z,7.57
2018-12-30T06:56:42.440Z,7.56
2018-12-30T06:57:42.296Z,7.48
2018-12-30T06:58:42.232Z,7.48
2018-12-30T06:59:42.246Z,7.47
2018-12-30T07:00:42.228Z,7.54
2018-12-30T07:01:42.204Z,7.40
2018-12-30T07:02:42.328Z,7.51
2018-12-30T07:03:42.170Z,7.45
2018-12-30T07:04:42.165Z,7.39
2018-12-30T07:05:42.158Z,7.36
2018-12-30T07:06:42.165Z,7.38
2018-12-30T07:07:42.139Z,7.31
2018-12-30T07:08:42.270Z,7.38
2018-12-30T07:09:42.132Z,7.29
2018-12-30T07:10:42.103Z,7.31
2018-12-30T07:11:42.085Z,7.24
2018-12-30T07:12:42.084Z,7.32
2018-12-30T07:13:42.090Z,7.18
2018-12-30T07:14:42.297Z,7.33
2018-12-30T07:15:42.045Z,7.38
2018-12-30T07:16:42.052Z,7.31
2018-12-30T07:17:42.024Z,7.28
2018-12-30T07:18:42.024Z,7.24
2018-12-30T07:19:42.056Z,7.25
2018-12-30T07:20:42.399Z,7.21
2018-12-30T07:21:41.978Z,7.17
2018-12-30T07:22:41.975Z,7.21
2018-12-30T07:23:41.959Z,7.06
2018-12-30T07:24:41.951Z,7.14
2018-12-30T07:25:41.953Z,7.10
2018-12-30T07:26:42.160Z,7.10
2018-12-30T07:27:41.943Z,7.10
2018-12-30T07:28:41.940Z,7.15
2018-12-30T07:29:41.954Z,7.10
2018-12-30T07:30:41.933Z,7.13
2018-12-30T07:31:42.070Z,7.06
2018-12-30T07:32:42.147Z,7.10
2018-12-30T07:33:41.852Z,7.02
2018-12-30T07:34:41.835Z,7.07
2018-12-30T07:35:41.823Z,6.92
2018-12-30T07:36:41.831Z,7.03
2018-12-30T07:37:41.824Z,7.10
2018-12-30T07:38:41.993Z,6.99
2018-12-30T07:39:41.783Z,7.07
2018-12-30T07:40:41.773Z,7.03
2018-12-30T07:41:41.760Z,6.88
2018-12-30T07:42:41.768Z,6.95
2018-12-30T07:43:41.743Z,6.92
2018-12-30T07:44:41.929Z,6.88
2018-12-30T07:45:41.731Z,6.85
2018-12-30T07:46:41.731Z,6.89
2018-12-30T07:47:41.695Z,6.95
2018-12-30T07:48:41.719Z,6.93
2018-12-30T07:49:41.677Z,6.88
2018-12-30T07:50:41.983Z,6.82
2018-12-30T07:51:41.656Z,6.85
2018-12-30T07:52:41.852Z,6.81
2018-12-30T07:53:41.636Z,6.85
2018-12-30T07:54:41.630Z,6.89
2018-12-30T07:55:41.608Z,6.87
2018-12-30T07:56:41.722Z,6.88
2018-12-30T07:57:41.599Z,6.88
2018-12-30T07:58:41.600Z,6.89
2018-12-30T07:59:41.571Z,6.82
2018-12-30T08:00:41.571Z,6.92
2018-12-30T08:01:41.549Z,6.85
2018-12-30T08:02:41.679Z,6.84
2018-12-30T08:03:41.595Z,6.84
2018-12-30T08:04:41.532Z,6.93
2018-12-30T08:05:41.511Z,6.87
2018-12-30T08:06:41.495Z,6.85
2018-12-30T08:07:41.496Z,6.84
2018-12-30T08:08:41.693Z,6.82
2018-12-30T08:09:41.461Z,6.81
2018-12-30T08:10:41.448Z,6.84
2018-12-30T08:11:42.341Z,6.88
2018-12-30T08:12:41.533Z,6.84
2018-12-30T08:13:41.416Z,6.82
2018-12-30T08:14:41.608Z,6.77
2018-12-30T08:15:41.392Z,6.84
2018-12-30T08:16:43.094Z,6.75
2018-12-30T08:17:41.387Z,6.67
2018-12-30T08:18:41.367Z,6.74
2018-12-30T08:19:41.354Z,6.75
2018-12-30T08:20:41.608Z,6.84
2018-12-30T08:21:41.356Z,6.85
2018-12-30T08:22:41.315Z,6.79
2018-12-30T08:23:41.324Z,6.84
2018-12-30T08:24:41.305Z,6.88
2018-12-30T08:25:41.301Z,6.85
2018-12-30T08:26:41.399Z,6.82
2018-12-30T08:27:41.260Z,6.85
2018-12-30T08:28:41.260Z,6.75
2018-12-30T08:29:41.257Z,6.72
2018-12-30T08:30:41.236Z,6.82
2018-12-30T08:31:41.294Z,6.78
2018-12-30T08:32:41.972Z,6.89
2018-12-30T08:33:41.203Z,6.78
2018-12-30T08:34:41.199Z,6.84
2018-12-30T08:35:41.186Z,6.87
2018-12-30T08:36:41.169Z,6.74
2018-12-30T08:37:41.243Z,6.87
2018-12-30T08:38:41.289Z,6.79
2018-12-30T08:39:41.135Z,6.78
2018-12-30T08:40:41.133Z,6.78
2018-12-30T08:41:41.135Z,6.89
2018-12-30T08:42:41.112Z,6.87
2018-12-30T08:43:41.090Z,6.84
2018-12-30T08:44:41.193Z,6.85
2018-12-30T08:45:41.065Z,6.84
2018-12-30T08:46:41.063Z,6.87
2018-12-30T08:47:41.064Z,6.82
2018-12-30T08:48:41.048Z,6.87
2018-12-30T08:49:41.032Z,6.84
2018-12-30T08:50:41.136Z,6.82
2018-12-30T08:51:41.009Z,6.87
2018-12-30T08:52:41.017Z,6.92
2018-12-30T08:53:40.998Z,6.82
2018-12-30T08:54:41.067Z,6.81
2018-12-30T08:55:40.958Z,6.89
2018-12-30T08:56:41.648Z,6.87
2018-12-30T08:57:40.993Z,6.87
2018-12-30T08:58:40.937Z,6.88
2018-12-30T08:59:40.944Z,6.89
2018-12-30T09:00:40.908Z,6.92
2018-12-30T09:01:40.894Z,6.93
2018-12-30T09:02:41.090Z,6.99
2018-12-30T09:03:40.884Z,6.96
2018-12-30T09:04:40.881Z,6.99
2018-12-30T09:05:40.851Z,6.92
2018-12-30T09:06:40.848Z,6.96
2018-12-30T09:07:40.843Z,6.93
2018-12-30T09:08:41.352Z,6.88
2018-12-30T09:09:40.832Z,6.88
2018-12-30T09:10:40.803Z,6.88
2018-12-30T09:11:40.787Z,6.95
2018-12-30T09:12:40.768Z,6.93
2018-12-30T09:13:40.784Z,6.89
2018-12-30T09:14:40.855Z,6.95
2018-12-30T09:15:40.749Z,7.00
2018-12-30T09:16:40.752Z,6.97
2018-12-30T09:17:40.755Z,6.99
2018-12-30T09:18:40.704Z,6.96
2018-12-30T09:19:40.701Z,7.02
2018-12-30T09:20:40.820Z,7.13
2018-12-30T09:21:40.685Z,7.05
2018-12-30T09:22:40.673Z,7.06
2018-12-30T09:23:40.659Z,7.17
2018-12-30T09:24:40.646Z,7.10
2018-12-30T09:25:40.655Z,7.10
2018-12-30T09:26:40.764Z,7.17
2018-12-30T09:27:40.628Z,7.20
2018-12-30T09:28:40.600Z,7.18
2018-12-30T09:29:40.584Z,7.17
2018-12-30T09:30:40.600Z,7.17
2018-12-30T09:31:40.570Z,7.20
2018-12-30T09:32:40.698Z,7.17
2018-12-30T09:33:40.557Z,7.15
2018-12-30T09:34:40.536Z,7.18
2018-12-30T09:35:40.535Z,7.21
2018-12-30T09:36:40.513Z,7.23
2018-12-30T09:37:40.506Z,7.24
2018-12-30T09:38:40.714Z,7.18
2018-12-30T09:39:40.488Z,7.23
2018-12-30T09:40:40.467Z,7.33
2018-12-30T09:41:40.463Z,7.23
2018-12-30T09:42:40.449Z,7.33
2018-12-30T09:43:40.515Z,7.24
2018-12-30T09:44:40.635Z,7.31
2018-12-30T09:45:40.431Z,7.38
2018-12-30T09:46:40.405Z,7.38
2018-12-30T09:47:40.398Z,7.35
2018-12-30T09:48:40.391Z,7.45
2018-12-30T09:49:40.375Z,7.36
2018-12-30T09:50:40.505Z,7.36
2018-12-30T09:51:40.356Z,7.36
2018-12-30T09:52:40.337Z,7.45
2018-12-30T09:53:45.126Z,7.54
2018-12-30T09:54:41.328Z,7.45
2018-12-30T09:55:40.315Z,7.43
2018-12-30T09:56:40.433Z,7.43
2018-12-30T09:57:40.286Z,7.50
2018-12-30T09:58:40.273Z,7.50
2018-12-30T09:59:40.262Z,7.43
2018-12-30T10:00:40.364Z,7.48
2018-12-30T10:01:40.260Z,7.53
2018-12-30T10:02:40.479Z,7.56
2018-12-30T10:03:40.270Z,7.57
2018-12-30T10:04:40.214Z,7.54
2018-12-30T10:05:40.201Z,7.57
2018-12-30T10:06:40.216Z,7.61
2018-12-30T10:07:40.191Z,7.61
2018-12-30T10:08:40.288Z,7.61
2018-12-30T10:09:40.156Z,7.72
2018-12-30T10:10:40.149Z,7.70
2018-12-30T10:11:40.130Z,7.77
2018-12-30T10:12:40.129Z,7.87
2018-12-30T10:13:40.131Z,7.85
2018-12-30T10:14:40.230Z,7.85
2018-12-30T10:15:41.008Z,7.90
2018-12-30T10:16:40.101Z,7.91
2018-12-30T10:17:40.249Z,7.90
2018-12-30T10:18:40.222Z,7.94
2018-12-30T10:19:40.102Z,8.06
2018-12-30T10:20:40.217Z,8.10
2018-12-30T10:21:40.036Z,8.15
2018-12-30T10:22:40.015Z,8.23
2018-12-30T10:23:40.007Z,8.36
2018-12-30T10:24:40.008Z,8.26
2018-12-30T10:25:41.045Z,8.24
2018-12-30T10:26:40.305Z,8.20
2018-12-30T10:27:40.003Z,8.16
2018-12-30T10:28:39.998Z,8.16
2018-12-30T10:29:39.994Z,8.16
2018-12-30T10:30:39.973Z,8.24
2018-12-30T10:31:39.917Z,8.23
2018-12-30T10:32:40.315Z,8.23
2018-12-30T10:33:39.900Z,8.23
2018-12-30T10:34:39.880Z,8.16
2018-12-30T10:35:39.879Z,8.12
2018-12-30T10:36:39.875Z,7.95
2018-12-30T10:37:39.861Z,7.97
2018-12-30T10:38:40.109Z,8.00
2018-12-30T10:39:39.875Z,8.15
2018-12-30T10:40:39.841Z,8.08
2018-12-30T10:41:39.808Z,8.18
2018-12-30T10:42:39.867Z,8.19
2018-12-30T10:43:39.794Z,8.26
2018-12-30T10:44:39.927Z,8.28
2018-12-30T10:45:39.757Z,8.31
2018-12-30T10:46:40.146Z,8.42
2018-12-30T10:47:39.731Z,8.44
2018-12-30T10:48:39.730Z,8.45
2018-12-30T10:49:39.807Z,8.45
2018-12-30T10:50:39.852Z,8.44
2018-12-30T10:51:39.708Z,8.51
2018-12-30T10:52:39.710Z,8.51
2018-12-30T10:53:39.671Z,8.82
2018-12-30T10:54:39.662Z,8.89
2018-12-30T10:55:39.744Z,9.00
2018-12-30T10:56:39.911Z,9.99
2018-12-30T10:57:39.627Z,9.77
2018-12-30T10:58:39.625Z,9.91
2018-12-30T10:59:39.608Z,9.74
2018-12-30T11:00:39.613Z,9.61
2018-12-30T11:01:39.581Z,9.47
2018-12-30T11:02:39.722Z,9.32
2018-12-30T11:03:39.555Z,9.46
2018-12-30T11:04:39.541Z,9.29
2018-12-30T11:06:00.564Z,9.32
2018-12-30T11:06:39.601Z,9.41
2018-12-30T11:07:39.520Z,9.37
2018-12-30T11:08:40.321Z,9.64
2018-12-30T11:09:39.485Z,9.65
2018-12-30T11:10:39.478Z,9.79
2018-12-30T11:11:39.479Z,9.74
2018-12-30T11:12:40.024Z,9.74
2018-12-30T11:13:39.457Z,9.73
2018-12-30T11:14:39.715Z,9.72
2018-12-30T11:15:39.511Z,9.58
2018-12-30T11:16:39.416Z,9.54
2018-12-30T11:17:39.411Z,9.37
2018-12-30T11:18:39.463Z,9.28
2018-12-30T11:19:39.397Z,9.18
2018-12-30T11:20:39.533Z,9.28
2018-12-30T11:21:39.378Z,9.22
2018-12-30T11:22:39.350Z,9.14
2018-12-30T11:23:39.453Z,9.06
2018-12-30T11:24:39.339Z,9.10
2018-12-30T11:25:39.340Z,9.13
2018-12-30T11:26:39.428Z,9.06
2018-12-30T11:27:39.295Z,9.03
2018-12-30T11:28:39.296Z,8.97
2018-12-30T11:29:39.270Z,9.03
2018-12-30T11:30:39.294Z,8.95
2018-12-30T11:31:39.249Z,8.91
2018-12-30T11:32:39.413Z,8.82
2018-12-30T11:33:39.229Z,8.84
2018-12-30T11:34:39.237Z,8.87
2018-12-30T11:35:39.222Z,8.84
2018-12-30T11:36:39.206Z,8.84
2018-12-30T11:37:39.186Z,8.95
2018-12-30T11:38:39.332Z,8.79
2018-12-30T11:39:39.160Z,8.84
2018-12-30T11:40:39.162Z,8.82
2018-12-30T11:41:39.164Z,8.87
2018-12-30T11:42:39.165Z,8.85
2018-12-30T11:43:39.135Z,8.84
2018-12-30T11:44:39.234Z,8.78
2018-12-30T11:45:39.100Z,8.71
2018-12-30T11:46:39.098Z,8.71
2018-12-30T11:47:39.092Z,8.74
2018-12-30T11:48:39.062Z,8.78
2018-12-30T11:49:39.065Z,8.71
2018-12-30T11:50:39.157Z,8.67
2018-12-30T11:51:39.042Z,8.56
2018-12-30T11:52:39.037Z,8.60
2018-12-30T11:53:39.015Z,8.53
2018-12-30T11:54:39.013Z,8.53
2018-12-30T11:55:39.028Z,8.55
2018-12-30T11:56:39.195Z,8.49
2018-12-30T11:57:38.967Z,8.49
2018-12-30T11:58:38.963Z,8.41
2018-12-30T11:59:38.955Z,8.48
2018-12-30T12:00:38.933Z,8.36
2018-12-30T12:01:38.944Z,8.49
2018-12-30T12:02:39.009Z,8.37
2018-12-30T12:03:38.903Z,8.33
2018-12-30T12:04:38.904Z,8.34
2018-12-30T12:05:38.873Z,8.37
2018-12-30T12:06:38.870Z,8.48
2018-12-30T12:07:38.860Z,8.44
2018-12-30T12:08:38.995Z,8.56
2018-12-30T12:09:38.851Z,8.56
2018-12-30T12:10:38.823Z,8.63
2018-12-30T12:11:38.865Z,8.56
2018-12-30T12:12:38.879Z,8.61
2018-12-30T12:13:38.827Z,8.51
2018-12-30T12:14:39.027Z,8.55
2018-12-30T12:15:38.781Z,8.53
2018-12-30T12:16:38.783Z,8.48
2018-12-30T12:17:38.746Z,8.46
2018-12-30T12:18:38.735Z,8.49
2018-12-30T12:19:38.721Z,8.38
2018-12-30T12:20:38.844Z,8.45
2018-12-30T12:21:38.714Z,8.48
2018-12-30T12:22:38.737Z,8.45
2018-12-30T12:23:38.677Z,8.51
2018-12-30T12:24:38.681Z,8.37
2018-12-30T12:25:38.669Z,8.48
2018-12-30T12:26:38.771Z,8.51
2018-12-30T12:27:38.666Z,8.53
2018-12-30T12:28:38.617Z,8.61
2018-12-30T12:29:38.682Z,8.55
2018-12-30T12:30:38.615Z,8.45
2018-12-30T12:31:38.607Z,8.34
2018-12-30T12:32:38.739Z,8.45
2018-12-30T12:33:38.565Z,8.36
2018-12-30T12:34:38.554Z,8.34
2018-12-30T12:35:38.538Z,8.48
2018-12-30T12:36:38.534Z,8.37
2018-12-30T12:37:38.532Z,8.44
2018-12-30T12:38:38.767Z,8.33
2018-12-30T12:39:39.502Z,8.36
2018-12-30T12:40:38.487Z,8.33
2018-12-30T12:41:38.479Z,8.44
2018-12-30T12:42:38.478Z,8.45
2018-12-30T12:43:38.472Z,8.49
2018-12-30T12:44:38.816Z,8.44
2018-12-30T12:45:38.608Z,8.45
2018-12-30T12:46:38.417Z,8.41
2018-12-30T12:47:38.422Z,8.48
2018-12-30T12:48:38.439Z,8.52
2018-12-30T12:49:38.400Z,8.61
2018-12-30T12:50:38.527Z,8.55
2018-12-30T12:51:38.377Z,8.58
2018-12-30T12:52:38.359Z,8.58
2018-12-30T12:53:38.350Z,8.66
2018-12-30T12:54:38.436Z,8.64
2018-12-30T12:55:38.360Z,8.64
2018-12-30T12:56:38.451Z,8.67
2018-12-30T12:57:38.296Z,8.61
2018-12-30T12:58:38.306Z,8.67
2018-12-30T12:59:38.283Z,8.53
2018-12-30T13:00:38.644Z,8.67
2018-12-30T13:01:39.265Z,8.64
2018-12-30T13:02:38.345Z,8.82
2018-12-30T13:03:38.244Z,8.82
2018-12-30T13:04:38.227Z,8.70
2018-12-30T13:05:38.207Z,8.67
2018-12-30T13:06:38.202Z,8.63
2018-12-30T13:07:38.204Z,8.55
2018-12-30T13:08:38.299Z,8.56
2018-12-30T13:09:38.162Z,8.60
2018-12-30T13:10:38.166Z,8.58
2018-12-30T13:11:38.151Z,8.64
2018-12-30T13:12:38.139Z,8.66
2018-12-30T13:13:38.156Z,8.63
2018-12-30T13:14:38.262Z,8.51
2018-12-30T13:15:38.094Z,8.61
2018-12-30T13:16:38.162Z,8.61
2018-12-30T13:17:38.077Z,8.60
2018-12-30T13:18:38.220Z,8.64